首页
METAR-TAF:

METAR-TAF

机场 :

西爾維奧·佩蒂羅西國際機場

亞松森, 巴拉圭

纬度: 25-16S, 经度: 057-38W, 海拔: 101米

当前天气观测

该预报发布于50分钟前的23:00 UTC
风速4节,风向东转东南
温度 26°C
湿度 61%
气压 1009 hPa
能見度: 8000

METAR: SGAS 212300Z 12004KT 8000 NSC 26/18 Q1009

时间: 20:50 (23:50 UTC)

预报

该预报发布于1小时和53分钟前的21:57 UTC
预报有效从22日的 00点(UTC)到 23日的 00点(UTC)
风速8节,风向东北
能见度10公里或以上
1500米以下无云,无积雨云
成为
从 22日的 13点(UTC)到 21日的 16点(UTC)
风速12节,风向北转东北
能见度10公里或以上
散云层高于3300英尺
成为
从 22日的 18点(UTC)到 22日的 21点(UTC)
能見度: 8000
多云层高于2000英尺
少量云层高于4000英尺, 塔状积云.
阵雨

TAF: SGAS 212157Z 2200/2300 05008KT CAVOK TX33/229Z TN21/2209Z BECMG 2213/2116 02012KT 9999 SCT033 BECMG 2218/2221 8000 SHRA BKN020 FEW040TCU

超过4000个机场的气象观测和天气预报(METAR&TAF报告)。

可查询的气象台以黄色和红色小点在地图上表示。

将鼠标移到小点上方,可查看气象台名称。

然后点击查看天气观测和预报。

如需切换地图:点击带黑十字的绿色按钮放大地图;点击带横线的绿色按钮缩小地图;或者点击绿色箭头查看邻近地区的地图。


METAR-TAF: